Time;durP1;ratioP1;P1;durP2;ratioP2;P2;SDS_P1;SDS_P2;PMS_P1;PMS_P2;Temp;Humidity;BMP_temperature;BMP_pressure;BME280_temperature;BME280_humidity;BME280_pressure;Samples;Min_cycle;Max_cycle;Signal;HPM_P1;HPM_P2
2022/07/14 00:01:02;;;;;;;5.68;1.33;;;;;;;;;;5089209;28;20020;-64
2022/07/14 00:03:28;;;;;;;5.03;1.65;;;;;;;;;;5091909;28;20028;-64
2022/07/14 00:05:54;;;;;;;4.28;1.50;;;;;;;;;;5092045;28;20020;-65
2022/07/14 00:08:19;;;;;;;7.55;1.85;;;;;;;;;;5092743;28;20028;-65
2022/07/14 00:10:45;;;;;;;6.97;1.50;;;;;;;;;;5092738;28;20546;-66
2022/07/14 00:13:11;;;;;;;5.35;1.80;;;;;;;;;;5092678;28;20095;-66
2022/07/14 00:15:36;;;;;;;5.05;1.27;;;;;;;;;;5092631;28;20136;-66
2022/07/14 00:18:02;;;;;;;4.60;1.40;;;;;;;;;;5092676;28;20020;-65
2022/07/14 00:20:29;;;;;;;7.80;1.73;;;;;;;;;;5092676;28;20073;-65
2022/07/14 00:22:58;;;;;;;7.13;1.45;;;;;;;;;;5092617;28;20032;-65
2022/07/14 00:25:24;;;;;;;5.78;1.83;;;;;;;;;;5093408;28;20047;-65
2022/07/14 00:27:50;;;;;;;5.70;1.40;;;;;;;;;;5096449;28;20024;-66
2022/07/14 00:30:16;;;;;;;7.25;1.65;;;;;;;;;;5096590;28;20028;-66
2022/07/14 00:32:41;;;;;;;5.07;1.48;;;;;;;;;;5096543;28;20326;-66
2022/07/14 00:35:08;;;;;;;6.68;1.52;;;;;;;;;;5096325;28;20039;-65
2022/07/14 00:37:34;;;;;;;7.90;1.77;;;;;;;;;;5096383;28;20024;-66
2022/07/14 00:40:03;;;;;;;5.82;1.42;;;;;;;;;;5096329;28;20061;-66
2022/07/14 00:42:39;;;;;;;7.25;1.80;;;;;;;;;;5096058;28;20020;-65
2022/07/14 00:45:10;;;;;;;10.57;1.83;;;;;;;;;;5095724;28;20043;-65
2022/07/14 00:47:36;;;;;;;7.78;1.70;;;;;;;;;;5096193;28;20028;-65
2022/07/14 00:50:02;;;;;;;5.28;1.30;;;;;;;;;;5096150;28;20028;-65
2022/07/14 00:52:29;;;;;;;7.68;1.63;;;;;;;;;;5096181;28;20354;-65
2022/07/14 00:54:56;;;;;;;11.27;2.00;;;;;;;;;;5096080;28;20035;-65
2022/07/14 00:57:21;;;;;;;4.82;1.20;;;;;;;;;;5095876;28;20103;-65
2022/07/14 00:59:48;;;;;;;7.00;1.67;;;;;;;;;;5096210;28;20115;-65
2022/07/14 01:02:14;;;;;;;6.40;1.92;;;;;;;;;;5095846;28;20056;-65
2022/07/14 01:04:40;;;;;;;7.30;1.63;;;;;;;;;;5095882;28;20028;-65
2022/07/14 01:07:06;;;;;;;7.90;1.42;;;;;;;;;;5095918;28;20080;-65
2022/07/14 01:09:31;;;;;;;7.60;1.63;;;;;;;;;;5095893;28;20024;-66
2022/07/14 01:11:57;;;;;;;8.25;1.85;;;;;;;;;;5095618;28;20492;-65
2022/07/14 01:14:22;;;;;;;7.53;1.80;;;;;;;;;;5095799;28;20024;-65
2022/07/14 01:16:54;;;;;;;10.65;2.25;;;;;;;;;;5095692;28;20496;-66
2022/07/14 01:19:20;;;;;;;9.10;1.60;;;;;;;;;;5095659;28;20024;-65
2022/07/14 01:21:46;;;;;;;7.18;1.90;;;;;;;;;;5095502;28;20031;-65
2022/07/14 01:24:11;;;;;;;9.45;1.90;;;;;;;;;;5095515;28;20028;-66
2022/07/14 01:26:37;;;;;;;10.10;2.17;;;;;;;;;;5095375;28;20105;-66
2022/07/14 01:29:02;;;;;;;6.93;1.75;;;;;;;;;;5095483;28;20073;-65
2022/07/14 01:31:28;;;;;;;8.38;1.65;;;;;;;;;;5095474;28;20028;-65
2022/07/14 01:33:54;;;;;;;8.70;1.83;;;;;;;;;;5095426;28;20036;-66
2022/07/14 01:36:20;;;;;;;12.95;1.95;;;;;;;;;;5094815;28;20024;-66
2022/07/14 01:38:46;;;;;;;8.35;1.40;;;;;;;;;;5094628;28;20461;-65
2022/07/14 01:41:12;;;;;;;12.43;1.88;;;;;;;;;;5095060;28;20081;-65
2022/07/14 01:43:37;;;;;;;9.35;2.08;;;;;;;;;;5094691;28;20048;-65
2022/07/14 01:46:03;;;;;;;8.95;1.88;;;;;;;;;;5095252;28;20032;-65
2022/07/14 01:48:28;;;;;;;7.43;1.60;;;;;;;;;;5095068;28;20024;-65
2022/07/14 01:50:54;;;;;;;8.13;1.80;;;;;;;;;;5095086;28;20487;-66
2022/07/14 01:53:20;;;;;;;5.60;1.80;;;;;;;;;;5094843;28;20529;-65
2022/07/14 01:55:45;;;;;;;8.90;1.95;;;;;;;;;;5094863;28;20046;-65
2022/07/14 01:58:11;;;;;;;11.45;2.00;;;;;;;;;;5094918;28;20024;-66
2022/07/14 02:00:36;;;;;;;10.38;2.10;;;;;;;;;;5094944;28;20381;-66
2022/07/14 02:03:02;;;;;;;11.88;2.50;;;;;;;;;;5095083;28;20032;-65
2022/07/14 02:05:28;;;;;;;7.35;2.08;;;;;;;;;;5094777;28;20381;-65
2022/07/14 02:07:53;;;;;;;10.88;2.50;;;;;;;;;;5094794;28;20028;-66
2022/07/14 02:13:03;;;;;;;7.53;1.90;;;;;;;;;;5095019;28;20058;-65
2022/07/14 02:15:28;;;;;;;9.70;1.65;;;;;;;;;;5094634;28;20027;-65
2022/07/14 02:17:54;;;;;;;12.77;1.88;;;;;;;;;;5094478;28;20103;-65
2022/07/14 02:20:19;;;;;;;7.60;1.88;;;;;;;;;;5094508;28;20097;-65
2022/07/14 02:22:45;;;;;;;6.28;2.13;;;;;;;;;;5094378;28;20435;-65
2022/07/14 02:25:12;;;;;;;11.20;2.10;;;;;;;;;;5094126;28;20016;-65
2022/07/14 02:27:38;;;;;;;12.50;2.25;;;;;;;;;;5094442;28;20024;-65
2022/07/14 02:30:04;;;;;;;6.47;2.03;;;;;;;;;;5094318;28;20024;-65
2022/07/14 02:32:31;;;;;;;10.40;2.00;;;;;;;;;;5094363;28;20027;-65
2022/07/14 02:34:58;;;;;;;8.60;2.17;;;;;;;;;;5094181;28;20036;-65
2022/07/14 02:37:23;;;;;;;6.68;1.90;;;;;;;;;;5075769;28;20446;-65
2022/07/14 02:39:49;;;;;;;7.90;1.63;;;;;;;;;;5094155;28;20099;-66
2022/07/14 02:42:14;;;;;;;6.38;2.00;;;;;;;;;;5093785;28;20534;-66
2022/07/14 02:44:40;;;;;;;7.90;2.03;;;;;;;;;;5093354;28;20129;-65
2022/07/14 02:47:05;;;;;;;8.25;2.08;;;;;;;;;;5093992;28;20040;-65
2022/07/14 02:49:31;;;;;;;13.88;1.70;;;;;;;;;;5093621;28;20024;-66
2022/07/14 02:51:56;;;;;;;6.38;1.88;;;;;;;;;;5093720;28;20024;-65
2022/07/14 02:54:22;;;;;;;6.93;1.80;;;;;;;;;;5093916;28;20471;-65
2022/07/14 02:56:47;;;;;;;11.25;1.58;;;;;;;;;;5093759;28;20024;-65
2022/07/14 02:59:13;;;;;;;12.82;3.05;;;;;;;;;;5093893;28;20028;-66
2022/07/14 03:01:38;;;;;;;8.50;2.00;;;;;;;;;;5093712;28;20028;-66
2022/07/14 03:04:04;;;;;;;6.00;2.05;;;;;;;;;;5093676;28;20028;-65
2022/07/14 03:06:29;;;;;;;9.38;1.92;;;;;;;;;;5093519;28;20465;-66
2022/07/14 03:08:55;;;;;;;10.85;1.92;;;;;;;;;;5093621;28;20690;-65
2022/07/14 03:11:21;;;;;;;10.90;2.08;;;;;;;;;;5093601;28;20050;-65
2022/07/14 03:13:47;;;;;;;13.20;2.13;;;;;;;;;;5093581;28;20465;-65
2022/07/14 03:16:12;;;;;;;8.85;1.92;;;;;;;;;;5093670;28;20028;-65
2022/07/14 03:18:41;;;;;;;7.50;1.65;;;;;;;;;;5093452;28;20097;-65
2022/07/14 03:21:08;;;;;;;11.82;2.42;;;;;;;;;;5093210;28;20028;-65
2022/07/14 03:23:34;;;;;;;10.00;1.67;;;;;;;;;;5093288;28;20445;-66
2022/07/14 03:26:00;;;;;;;6.22;1.88;;;;;;;;;;5093297;28;20024;-65
2022/07/14 03:28:25;;;;;;;7.78;1.80;;;;;;;;;;5093280;28;20024;-65
2022/07/14 03:30:55;;;;;;;7.55;1.58;;;;;;;;;;5093269;28;20036;-65
2022/07/14 03:33:21;;;;;;;12.00;2.40;;;;;;;;;;5093055;28;20102;-65
2022/07/14 03:35:48;;;;;;;9.70;2.10;;;;;;;;;;5092863;28;20028;-66
2022/07/14 03:38:13;;;;;;;11.65;2.55;;;;;;;;;;5093045;28;20477;-65
2022/07/14 03:40:39;;;;;;;15.10;2.30;;;;;;;;;;5093049;28;20028;-65
2022/07/14 03:43:04;;;;;;;9.88;2.10;;;;;;;;;;5092917;28;20492;-66
2022/07/14 03:45:30;;;;;;;7.97;2.10;;;;;;;;;;5092484;28;20048;-65
2022/07/14 03:47:56;;;;;;;8.82;1.90;;;;;;;;;;5093073;28;20024;-66
2022/07/14 03:50:21;;;;;;;8.13;1.77;;;;;;;;;;5092758;28;20016;-65
2022/07/14 03:52:47;;;;;;;12.23;2.20;;;;;;;;;;5093001;28;20024;-65
2022/07/14 03:55:13;;;;;;;14.75;2.10;;;;;;;;;;5093017;28;20081;-65
2022/07/14 03:57:39;;;;;;;16.63;2.22;;;;;;;;;;5092775;28;20035;-65
2022/07/14 04:00:05;;;;;;;15.63;1.90;;;;;;;;;;5092224;28;20028;-65
2022/07/14 04:02:31;;;;;;;9.30;2.10;;;;;;;;;;5092852;28;20131;-66
2022/07/14 04:04:56;;;;;;;10.45;2.08;;;;;;;;;;5092546;28;20488;-65
2022/07/14 04:07:22;;;;;;;9.85;1.88;;;;;;;;;;5092834;28;20027;-65
2022/07/14 04:09:49;;;;;;;11.43;2.20;;;;;;;;;;5092749;28;20039;-65
2022/07/14 04:12:15;;;;;;;8.75;1.90;;;;;;;;;;5092689;28;20401;-65
2022/07/14 04:14:41;;;;;;;8.07;1.95;;;;;;;;;;5092722;28;20024;-65
2022/07/14 04:17:06;;;;;;;8.43;2.22;;;;;;;;;;5092693;28;20032;-65
2022/07/14 04:19:32;;;;;;;7.47;1.83;;;;;;;;;;5074391;28;20032;-65
2022/07/14 04:21:57;;;;;;;7.78;2.10;;;;;;;;;;5092660;28;20524;-65
2022/07/14 04:24:23;;;;;;;11.18;2.00;;;;;;;;;;5092641;28;20487;-65
2022/07/14 04:26:49;;;;;;;6.32;1.60;;;;;;;;;;5092504;28;20116;-66
2022/07/14 04:29:15;;;;;;;10.80;1.80;;;;;;;;;;5092666;28;20020;-65
2022/07/14 04:31:41;;;;;;;7.68;1.50;;;;;;;;;;5092434;28;20028;-65
2022/07/14 04:34:06;;;;;;;10.45;1.55;;;;;;;;;;5092297;28;20032;-66
2022/07/14 04:36:32;;;;;;;6.47;1.55;;;;;;;;;;5092627;28;20090;-66
2022/07/14 04:38:57;;;;;;;7.60;1.75;;;;;;;;;;5092677;28;20036;-65
2022/07/14 04:41:24;;;;;;;9.07;1.95;;;;;;;;;;5092419;28;20127;-65
2022/07/14 04:43:49;;;;;;;11.45;1.92;;;;;;;;;;5092012;28;21279;-65
2022/07/14 04:46:15;;;;;;;7.55;1.60;;;;;;;;;;5092374;28;20548;-65
2022/07/14 04:54:08;;;;;;;8.90;1.50;;;;;;;;;;5092287;28;20039;-65
2022/07/14 04:56:34;;;;;;;5.68;1.83;;;;;;;;;;5092501;28;20028;-66
2022/07/14 04:58:59;;;;;;;7.70;1.58;;;;;;;;;;5092472;28;20097;-65
2022/07/14 05:01:25;;;;;;;7.30;1.65;;;;;;;;;;5092263;28;20403;-65
2022/07/14 05:03:51;;;;;;;5.63;1.25;;;;;;;;;;5091948;28;20027;-65
2022/07/14 05:06:18;;;;;;;7.65;1.60;;;;;;;;;;5092195;28;20472;-65
2022/07/14 05:08:44;;;;;;;9.38;1.80;;;;;;;;;;5092178;28;20399;-65
2022/07/14 05:11:09;;;;;;;8.43;1.77;;;;;;;;;;5092820;28;20085;-65
2022/07/14 05:13:35;;;;;;;8.18;1.50;;;;;;;;;;5095775;28;20024;-65
2022/07/14 05:16:00;;;;;;;7.60;1.38;;;;;;;;;;5095663;28;20028;-65
2022/07/14 05:18:26;;;;;;;11.02;2.08;;;;;;;;;;5095439;28;20047;-66
2022/07/14 05:20:51;;;;;;;11.80;1.95;;;;;;;;;;5095692;28;20358;-65
2022/07/14 05:23:17;;;;;;;7.38;1.50;;;;;;;;;;5095594;28;20032;-65
2022/07/14 05:25:42;;;;;;;6.60;1.33;;;;;;;;;;5095631;28;20035;-65
2022/07/14 05:28:08;;;;;;;8.95;1.75;;;;;;;;;;5095542;28;20431;-65
2022/07/14 05:30:34;;;;;;;4.63;1.30;;;;;;;;;;5095386;28;20521;-65
2022/07/14 05:32:59;;;;;;;5.47;1.30;;;;;;;;;;5095207;28;20024;-65
2022/07/14 05:35:25;;;;;;;4.78;1.13;;;;;;;;;;5095530;28;20032;-65
2022/07/14 05:37:50;;;;;;;9.40;1.40;;;;;;;;;;5095509;28;20036;-65
2022/07/14 05:40:16;;;;;;;6.70;1.50;;;;;;;;;;5095256;28;20054;-65
2022/07/14 05:42:42;;;;;;;10.05;1.50;;;;;;;;;;5095121;28;20556;-65
2022/07/14 05:45:08;;;;;;;7.57;1.38;;;;;;;;;;5094766;28;20448;-65
2022/07/14 05:47:34;;;;;;;6.00;1.20;;;;;;;;;;5094878;28;20114;-66
2022/07/14 05:49:59;;;;;;;8.60;1.65;;;;;;;;;;5095115;28;20099;-65
2022/07/14 05:52:25;;;;;;;8.10;1.40;;;;;;;;;;5094978;28;20033;-65
2022/07/14 05:54:51;;;;;;;8.40;1.45;;;;;;;;;;5094921;28;20024;-65
2022/07/14 05:57:17;;;;;;;6.75;1.13;;;;;;;;;;5095030;28;20028;-65
2022/07/14 05:59:42;;;;;;;6.63;1.27;;;;;;;;;;5094886;28;20043;-65
2022/07/14 06:02:08;;;;;;;4.28;1.08;;;;;;;;;;5094592;28;20052;-65
2022/07/14 06:04:33;;;;;;;8.88;1.25;;;;;;;;;;5094744;28;20060;-65
2022/07/14 06:06:59;;;;;;;12.52;1.77;;;;;;;;;;5094735;28;20030;-65
2022/07/14 06:09:24;;;;;;;13.70;1.45;;;;;;;;;;5094897;28;20028;-65
2022/07/14 06:11:50;;;;;;;4.95;1.30;;;;;;;;;;5094777;28;20028;-65
2022/07/14 06:14:15;;;;;;;9.02;1.75;;;;;;;;;;5094631;28;20032;-65
2022/07/14 06:16:42;;;;;;;5.82;1.08;;;;;;;;;;5093909;28;20020;-66
2022/07/14 06:19:07;;;;;;;6.30;1.40;;;;;;;;;;5094597;28;20492;-65
2022/07/14 06:21:33;;;;;;;6.85;1.40;;;;;;;;;;5094480;28;20055;-65
2022/07/14 06:23:59;;;;;;;10.68;1.48;;;;;;;;;;5093545;28;20032;-65
2022/07/14 06:26:24;;;;;;;8.90;1.65;;;;;;;;;;5094606;28;20118;-65
2022/07/14 06:28:50;;;;;;;9.55;1.40;;;;;;;;;;5094316;28;20043;-65
2022/07/14 06:31:15;;;;;;;7.40;2.33;;;;;;;;;;5093944;28;20130;-65
2022/07/14 06:33:41;;;;;;;5.03;1.38;;;;;;;;;;5094256;28;20129;-65
2022/07/14 06:36:08;;;;;;;7.78;1.17;;;;;;;;;;5094318;28;20024;-65
2022/07/14 06:38:34;;;;;;;8.35;1.40;;;;;;;;;;5094158;28;20074;-65
2022/07/14 06:41:00;;;;;;;9.23;1.63;;;;;;;;;;5094076;28;20044;-65
2022/07/14 06:43:26;;;;;;;4.90;1.00;;;;;;;;;;5093583;28;20075;-66
2022/07/14 06:45:51;;;;;;;13.85;1.98;;;;;;;;;;5093535;28;20052;-65
2022/07/14 06:48:17;;;;;;;5.15;1.20;;;;;;;;;;5093806;28;20056;-65
2022/07/14 06:50:44;;;;;;;5.25;1.38;;;;;;;;;;5093853;28;20024;-65
2022/07/14 06:53:09;;;;;;;5.68;1.42;;;;;;;;;;5093674;28;20035;-65
2022/07/14 06:55:35;;;;;;;5.35;1.10;;;;;;;;;;5093880;28;20028;-66
2022/07/14 06:58:00;;;;;;;11.93;1.40;;;;;;;;;;5093834;28;20020;-65
2022/07/14 07:00:26;;;;;;;7.43;1.10;;;;;;;;;;5093274;28;20035;-66
2022/07/14 07:02:52;;;;;;;5.80;1.10;;;;;;;;;;5093411;28;20107;-65
2022/07/14 07:08:21;;;;;;;4.80;1.15;;;;;;;;;;5015439;28;20061;-65
2022/07/14 07:10:46;;;;;;;8.73;1.60;;;;;;;;;;5016280;28;20068;-65
2022/07/14 07:13:12;;;;;;;8.52;1.30;;;;;;;;;;5013961;28;20495;-66
2022/07/14 07:15:38;;;;;;;4.60;1.17;;;;;;;;;;5011439;28;20088;-66
2022/07/14 07:18:06;;;;;;;4.78;1.10;;;;;;;;;;5012577;28;20065;-65
2022/07/14 07:20:33;;;;;;;5.32;1.10;;;;;;;;;;5014962;28;20054;-66
2022/07/14 07:22:58;;;;;;;8.60;1.10;;;;;;;;;;5010977;28;20590;-66
2022/07/14 07:25:24;;;;;;;4.18;0.90;;;;;;;;;;5015239;28;20189;-66
2022/07/14 07:27:49;;;;;;;3.78;1.00;;;;;;;;;;5012731;28;20152;-66
2022/07/14 07:30:15;;;;;;;5.40;1.02;;;;;;;;;;5018550;28;20470;-65
2022/07/14 07:32:40;;;;;;;6.80;0.90;;;;;;;;;;5023111;28;20548;-66
2022/07/14 07:35:06;;;;;;;5.20;1.15;;;;;;;;;;5002539;28;20034;-65
2022/07/14 07:37:32;;;;;;;5.25;1.02;;;;;;;;;;5018874;28;20029;-65
2022/07/14 07:39:58;;;;;;;6.22;1.10;;;;;;;;;;5076383;28;20032;-65
2022/07/14 07:42:25;;;;;;;4.35;1.05;;;;;;;;;;5081547;28;20468;-65
2022/07/14 07:44:51;;;;;;;6.68;1.30;;;;;;;;;;5076955;28;20044;-65
2022/07/14 07:47:16;;;;;;;6.82;0.98;;;;;;;;;;5082801;28;20441;-66
2022/07/14 07:49:42;;;;;;;5.75;1.17;;;;;;;;;;5078185;28;20028;-66
2022/07/14 07:52:07;;;;;;;6.07;1.30;;;;;;;;;;5079876;28;20039;-66
2022/07/14 07:54:33;;;;;;;6.15;1.10;;;;;;;;;;5081636;28;20037;-63
2022/07/14 07:56:59;;;;;;;8.02;1.00;;;;;;;;;;5075021;28;20106;-63
2022/07/14 07:59:26;;;;;;;12.00;1.45;;;;;;;;;;5080561;28;20034;-65
2022/07/14 08:01:51;;;;;;;8.73;1.50;;;;;;;;;;5076975;28;20433;-63
2022/07/14 08:04:17;;;;;;;6.07;1.00;;;;;;;;;;5084813;28;20055;-63
2022/07/14 08:06:43;;;;;;;7.63;1.33;;;;;;;;;;5070325;28;20035;-63
2022/07/14 08:09:13;;;;;;;10.48;1.85;;;;;;;;;;5081560;28;20145;-63
2022/07/14 08:11:40;;;;;;;;;;;;;;;;;;5070155;28;20445;-63
2022/07/14 08:14:06;;;;;;;3.17;0.85;;;;;;;;;;5078665;28;19927;-63
2022/07/14 08:16:31;;;;;;;5.63;1.67;;;;;;;;;;5074827;28;20025;-64
2022/07/14 08:18:57;;;;;;;4.35;1.38;;;;;;;;;;5063942;28;20036;-64
2022/07/14 08:21:23;;;;;;;4.95;1.05;;;;;;;;;;5077652;28;20060;-64
2022/07/14 08:23:50;;;;;;;6.82;1.35;;;;;;;;;;5080561;28;20039;-64
2022/07/14 08:26:16;;;;;;;16.05;3.22;;;;;;;;;;5085004;28;20446;-64
2022/07/14 08:28:41;;;;;;;8.70;1.95;;;;;;;;;;5073715;28;20017;-64
2022/07/14 08:31:07;;;;;;;17.85;3.40;;;;;;;;;;5076220;28;20151;-64
2022/07/14 08:33:33;;;;;;;16.38;3.03;;;;;;;;;;5069561;28;20201;-65
2022/07/14 08:35:58;;;;;;;33.78;6.00;;;;;;;;;;5070250;28;20046;-66
2022/07/14 08:38:24;;;;;;;19.25;2.95;;;;;;;;;;5081626;28;20040;-68
2022/07/14 08:40:49;;;;;;;17.20;2.78;;;;;;;;;;5079299;28;20047;-66
2022/07/14 08:43:15;;;;;;;11.27;1.85;;;;;;;;;;5075945;28;20025;-66
2022/07/14 08:45:42;;;;;;;5.95;0.80;;;;;;;;;;5073349;28;20543;-65
2022/07/14 08:48:11;;;;;;;21.67;3.20;;;;;;;;;;5079818;28;20131;-65
2022/07/14 08:50:37;;;;;;;32.78;5.05;;;;;;;;;;5079924;28;20113;-65
2022/07/14 08:53:03;;;;;;;24.13;4.00;;;;;;;;;;5087426;28;20032;-65
2022/07/14 08:55:30;;;;;;;6.95;1.20;;;;;;;;;;5089043;28;20365;-65
2022/07/14 08:57:56;;;;;;;23.02;4.57;;;;;;;;;;5076161;28;20024;-65
2022/07/14 09:00:22;;;;;;;19.65;4.07;;;;;;;;;;5085014;28;20133;-65
2022/07/14 09:02:52;;;;;;;10.82;1.77;;;;;;;;;;5082210;28;20032;-65
2022/07/14 09:05:18;;;;;;;7.90;1.75;;;;;;;;;;5091447;28;20036;-64
2022/07/14 09:07:44;;;;;;;9.90;2.13;;;;;;;;;;5072889;28;20027;-65
2022/07/14 09:10:15;;;;;;;7.80;1.98;;;;;;;;;;5092081;28;20032;-65
2022/07/14 09:12:41;;;;;;;11.55;3.30;;;;;;;;;;5090548;28;20136;-65
2022/07/14 09:18:04;;;;;;;7.80;2.05;;;;;;;;;;5091800;28;20380;-65
2022/07/14 09:20:36;;;;;;;5.40;1.48;;;;;;;;;;5090547;28;20542;-65
2022/07/14 09:23:04;;;;;;;4.82;1.65;;;;;;;;;;5091731;28;20157;-65
2022/07/14 09:25:31;;;;;;;11.77;3.17;;;;;;;;;;5091267;28;20040;-65
2022/07/14 09:27:57;;;;;;;9.43;2.13;;;;;;;;;;5090822;28;20028;-65
2022/07/14 09:30:24;;;;;;;8.52;1.85;;;;;;;;;;5091921;28;20102;-65
2022/07/14 09:32:57;;;;;;;5.55;1.55;;;;;;;;;;5090435;28;20032;-65
2022/07/14 09:35:36;;;;;;;5.93;1.88;;;;;;;;;;5091432;28;20447;-65
2022/07/14 09:38:22;;;;;;;2.92;0.95;;;;;;;;;;5078378;28;20082;-65
2022/07/14 09:40:49;;;;;;;9.75;2.08;;;;;;;;;;5090203;28;20032;-65
2022/07/14 09:43:15;;;;;;;4.13;1.55;;;;;;;;;;5091107;28;20034;-65
2022/07/14 09:45:45;;;;;;;4.40;1.17;;;;;;;;;;5090958;28;20053;-64
2022/07/14 09:48:13;;;;;;;7.22;1.23;;;;;;;;;;5073363;28;20148;-65
2022/07/14 09:50:44;;;;;;;6.30;1.40;;;;;;;;;;5091093;28;20069;-65
2022/07/14 09:53:12;;;;;;;3.53;0.93;;;;;;;;;;5078097;28;20137;-65
2022/07/14 09:55:40;;;;;;;3.30;1.05;;;;;;;;;;5071493;28;20546;-65
2022/07/14 09:58:09;;;;;;;4.20;0.82;;;;;;;;;;5069877;28;20040;-65
2022/07/14 10:00:36;;;;;;;4.22;0.93;;;;;;;;;;5071450;28;20024;-65
2022/07/14 10:03:04;;;;;;;4.53;0.60;;;;;;;;;;5089544;28;20036;-65
2022/07/14 10:05:34;;;;;;;6.78;0.85;;;;;;;;;;5090706;28;20136;-64
2022/07/14 10:08:02;;;;;;;6.20;1.23;;;;;;;;;;5090468;28;20118;-65
2022/07/14 10:10:35;;;;;;;3.15;1.10;;;;;;;;;;5091324;28;20119;-65
2022/07/14 10:13:04;;;;;;;2.38;0.90;;;;;;;;;;5089605;28;20039;-65
2022/07/14 10:15:30;;;;;;;9.38;1.20;;;;;;;;;;5089799;28;20031;-65
2022/07/14 10:17:59;;;;;;;1.55;0.90;;;;;;;;;;5090517;28;20114;-65
2022/07/14 10:20:26;;;;;;;2.80;0.70;;;;;;;;;;5090524;28;20032;-65
2022/07/14 10:22:54;;;;;;;4.28;1.08;;;;;;;;;;5089273;28;20084;-64
2022/07/14 10:25:20;;;;;;;1.98;0.70;;;;;;;;;;5090061;28;20111;-64
2022/07/14 10:27:47;;;;;;;6.97;1.67;;;;;;;;;;5075442;28;20611;-64
2022/07/14 10:30:13;;;;;;;5.82;1.20;;;;;;;;;;5071987;28;20017;-65
2022/07/14 10:32:56;;;;;;;3.88;1.00;;;;;;;;;;5080093;28;20193;-65
2022/07/14 10:35:46;;;;;;;2.80;0.90;;;;;;;;;;5082590;28;20020;-65
2022/07/14 10:38:15;;;;;;;;;;;;;;;;;;5082325;28;20059;-64
2022/07/14 10:40:55;;;;;;;1.40;0.70;;;;;;;;;;5087334;28;19912;-64
2022/07/14 10:43:27;;;;;;;2.30;0.73;;;;;;;;;;5083608;28;20028;-65
2022/07/14 10:45:54;;;;;;;3.45;0.80;;;;;;;;;;5077330;28;20044;-65
2022/07/14 10:48:36;;;;;;;3.80;0.88;;;;;;;;;;5082815;28;20021;-65
2022/07/14 10:51:13;;;;;;;4.85;1.02;;;;;;;;;;5075034;28;20032;-65
2022/07/14 10:54:09;;;;;;;3.78;1.00;;;;;;;;;;5083135;28;20021;-65
2022/07/14 10:56:36;;;;;;;2.70;0.90;;;;;;;;;;5079997;28;20029;-65
2022/07/14 10:59:29;;;;;;;3.88;1.10;;;;;;;;;;5081751;28;20614;-63
2022/07/14 11:02:13;;;;;;;3.92;0.85;;;;;;;;;;5073370;28;20032;-66
2022/07/14 11:05:00;;;;;;;7.15;0.93;;;;;;;;;;5076222;28;20020;-65
2022/07/14 11:07:52;;;;;;;6.50;1.30;;;;;;;;;;5077486;28;20020;-65
2022/07/14 11:10:18;;;;;;;2.80;0.95;;;;;;;;;;5073883;28;20540;-65
2022/07/14 11:13:04;;;;;;;3.33;0.90;;;;;;;;;;5079039;28;20120;-65
2022/07/14 11:15:43;;;;;;;5.20;0.70;;;;;;;;;;5072591;28;20036;-64
2022/07/14 11:18:34;;;;;;;7.00;0.90;;;;;;;;;;5084740;28;20111;-65
2022/07/14 11:21:18;;;;;;;2.10;0.90;;;;;;;;;;5081446;28;20032;-65
2022/07/14 11:23:47;;;;;;;5.13;0.93;;;;;;;;;;5076545;28;20107;-64
2022/07/14 11:26:40;;;;;;;4.75;1.00;;;;;;;;;;5083155;28;20499;-65
2022/07/14 11:29:09;;;;;;;4.10;1.00;;;;;;;;;;5076240;28;20500;-65
2022/07/14 11:31:52;;;;;;;3.25;1.15;;;;;;;;;;5076966;28;20032;-65
2022/07/14 11:37:10;;;;;;;5.78;1.25;;;;;;;;;;5073746;28;20031;-64
2022/07/14 11:39:37;;;;;;;3.30;1.02;;;;;;;;;;5080103;28;20468;-65
2022/07/14 11:42:13;;;;;;;2.95;0.88;;;;;;;;;;5081202;28;20036;-64
2022/07/14 11:44:38;;;;;;;2.20;0.75;;;;;;;;;;5080200;28;20049;-65
2022/07/14 11:47:14;;;;;;;2.55;0.73;;;;;;;;;;5072558;28;20050;-64
2022/07/14 11:49:41;;;;;;;3.72;0.90;;;;;;;;;;5076130;28;20036;-65
2022/07/14 11:52:07;;;;;;;3.03;0.70;;;;;;;;;;5075062;28;20410;-65
2022/07/14 11:54:33;;;;;;;6.20;0.80;;;;;;;;;;5081308;28;20417;-65
2022/07/14 11:57:06;;;;;;;1.27;0.55;;;;;;;;;;5082207;28;20020;-64
2022/07/14 11:59:33;;;;;;;3.45;0.70;;;;;;;;;;5070977;28;20056;-65
2022/07/14 12:02:07;;;;;;;2.10;0.80;;;;;;;;;;5081402;28;20507;-65
2022/07/14 12:04:33;;;;;;;2.95;0.70;;;;;;;;;;5081594;28;20552;-65
2022/07/14 12:06:59;;;;;;;2.38;0.77;;;;;;;;;;5073326;28;20082;-65
2022/07/14 12:09:30;;;;;;;3.25;1.00;;;;;;;;;;5075247;28;20393;-64
2022/07/14 12:11:56;;;;;;;3.83;0.82;;;;;;;;;;5072182;28;20069;-65
2022/07/14 12:14:23;;;;;;;5.63;1.00;;;;;;;;;;5083630;28;20489;-64
2022/07/14 12:16:50;;;;;;;3.47;0.90;;;;;;;;;;5073049;28;20036;-64
2022/07/14 12:19:29;;;;;;;2.25;0.70;;;;;;;;;;5077946;28;20082;-64
2022/07/14 12:21:59;;;;;;;2.85;0.68;;;;;;;;;;5079936;28;20021;-65
2022/07/14 12:24:26;;;;;;;3.42;0.88;;;;;;;;;;5079342;28;20032;-65
2022/07/14 12:26:55;;;;;;;3.42;0.70;;;;;;;;;;5093696;28;20047;-65
2022/07/14 12:29:22;;;;;;;3.28;0.70;;;;;;;;;;5096538;28;20099;-65
2022/07/14 12:31:47;;;;;;;2.67;0.70;;;;;;;;;;5096190;28;20027;-64
2022/07/14 12:34:15;;;;;;;2.28;0.77;;;;;;;;;;5096519;28;20028;-65
2022/07/14 12:36:41;;;;;;;6.20;0.80;;;;;;;;;;5084239;28;20040;-65
2022/07/14 12:39:09;;;;;;;4.55;0.82;;;;;;;;;;5079052;28;20124;-64
2022/07/14 12:41:36;;;;;;;4.00;0.75;;;;;;;;;;5085876;28;20028;-65
2022/07/14 12:44:06;;;;;;;3.45;0.80;;;;;;;;;;5087939;28;20122;-66
2022/07/14 12:46:32;;;;;;;3.70;0.70;;;;;;;;;;5082507;28;20043;-64
2022/07/14 12:49:03;;;;;;;2.65;0.80;;;;;;;;;;5088661;28;20489;-64
2022/07/14 12:51:43;;;;;;;7.85;0.80;;;;;;;;;;5089374;28;20444;-64
2022/07/14 12:54:10;;;;;;;;;;;;;;;;;;5080572;28;20496;-64
2022/07/14 12:56:52;;;;;;;3.78;0.85;;;;;;;;;;5083032;28;19927;-64
2022/07/14 12:59:20;;;;;;;4.75;0.80;;;;;;;;;;5086956;28;20024;-65
2022/07/14 13:01:51;;;;;;;3.33;0.70;;;;;;;;;;5088517;28;20059;-64
2022/07/14 13:04:38;;;;;;;8.85;1.20;;;;;;;;;;5081460;28;20034;-64
2022/07/14 13:07:21;;;;;;;1.92;0.70;;;;;;;;;;5079401;28;20043;-64
2022/07/14 13:10:12;;;;;;;3.53;0.98;;;;;;;;;;5081547;28;20029;-64
2022/07/14 13:12:41;;;;;;;2.42;0.65;;;;;;;;;;5084771;28;20063;-64
2022/07/14 13:15:31;;;;;;;2.78;0.80;;;;;;;;;;5071294;28;20024;-64
2022/07/14 13:17:59;;;;;;;6.85;0.60;;;;;;;;;;5090459;28;20546;-64
2022/07/14 13:20:49;;;;;;;3.80;0.73;;;;;;;;;;5090489;28;20389;-65
2022/07/14 13:23:20;;;;;;;;;;;;;;;;;;5090944;28;20522;-64
2022/07/14 13:25:46;;;;;;;1.65;0.52;;;;;;;;;;5091916;28;19912;-66
2022/07/14 13:28:11;;;;;;;3.95;0.75;;;;;;;;;;5089889;28;20020;-64
2022/07/14 13:30:37;;;;;;;3.97;0.90;;;;;;;;;;5082276;28;20417;-64
2022/07/14 13:33:03;;;;;;;3.95;0.90;;;;;;;;;;5091455;28;20020;-64
2022/07/14 13:35:28;;;;;;;8.00;1.25;;;;;;;;;;5082009;28;20359;-65
2022/07/14 13:37:54;;;;;;;1.45;0.63;;;;;;;;;;5079849;28;20025;-65
2022/07/14 13:40:19;;;;;;;5.10;0.70;;;;;;;;;;5078374;28;20494;-65
2022/07/14 13:42:45;;;;;;;5.43;0.80;;;;;;;;;;5082146;28;20225;-64
2022/07/14 13:45:11;;;;;;;2.20;0.70;;;;;;;;;;5074616;28;20044;-64
2022/07/14 13:47:36;;;;;;;5.00;0.77;;;;;;;;;;5071467;28;20478;-64
2022/07/14 13:52:46;;;;;;;5.97;0.70;;;;;;;;;;5074581;28;20109;-66
2022/07/14 13:55:12;;;;;;;1.15;0.52;;;;;;;;;;5084857;28;20473;-65
2022/07/14 13:57:37;;;;;;;2.72;0.60;;;;;;;;;;5081446;28;20385;-65
2022/07/14 14:00:04;;;;;;;3.63;0.77;;;;;;;;;;5084971;28;20507;-64
2022/07/14 14:03:22;;;;;;;2.75;0.80;;;;;;;;;;5074660;28;20051;-65
2022/07/14 14:05:15;;;;;;;6.22;0.90;;;;;;;;;;5078054;28;20085;-65
2022/07/14 14:07:40;;;;;;;6.18;0.80;;;;;;;;;;5079755;28;20113;-65
2022/07/14 14:10:06;;;;;;;3.20;0.77;;;;;;;;;;5076933;28;20036;-65
2022/07/14 14:12:32;;;;;;;5.97;0.85;;;;;;;;;;5083132;28;20039;-65
2022/07/14 14:14:57;;;;;;;6.20;0.80;;;;;;;;;;5079966;28;20150;-64
2022/07/14 14:17:23;;;;;;;4.80;0.60;;;;;;;;;;5079634;28;20044;-65
2022/07/14 14:19:48;;;;;;;5.20;0.95;;;;;;;;;;5075884;28;20017;-64
2022/07/14 14:22:19;;;;;;;2.67;0.90;;;;;;;;;;5073873;28;20385;-65
2022/07/14 14:24:45;;;;;;;3.47;0.70;;;;;;;;;;5080061;28;20025;-65
2022/07/14 14:27:11;;;;;;;2.45;0.90;;;;;;;;;;5080106;28;20025;-65
2022/07/14 14:29:39;;;;;;;4.57;0.85;;;;;;;;;;5080063;28;20033;-65
2022/07/14 14:32:05;;;;;;;2.80;0.80;;;;;;;;;;5083573;28;20032;-65
2022/07/14 14:34:31;;;;;;;2.40;0.70;;;;;;;;;;5079483;28;20029;-65
2022/07/14 14:36:56;;;;;;;1.77;0.70;;;;;;;;;;5090109;28;20389;-65
2022/07/14 14:39:22;;;;;;;1.80;0.60;;;;;;;;;;5089552;28;21739;-64
2022/07/14 14:41:47;;;;;;;4.30;0.60;;;;;;;;;;5089387;28;20024;-65
2022/07/14 14:44:14;;;;;;;8.07;0.75;;;;;;;;;;5081684;28;20053;-65
2022/07/14 14:46:39;;;;;;;1.35;0.57;;;;;;;;;;5090107;28;20046;-65
2022/07/14 14:49:05;;;;;;;4.80;0.60;;;;;;;;;;5089808;28;20012;-66
2022/07/14 14:51:30;;;;;;;2.15;1.02;;;;;;;;;;5090451;28;20052;-65
2022/07/14 14:53:56;;;;;;;3.83;0.60;;;;;;;;;;5073093;28;20036;-65
2022/07/14 14:56:22;;;;;;;2.38;0.60;;;;;;;;;;5084067;28;20024;-65
2022/07/14 14:58:48;;;;;;;1.50;0.65;;;;;;;;;;5081925;28;20477;-64
2022/07/14 15:01:13;;;;;;;3.33;0.77;;;;;;;;;;5089502;28;20032;-65
2022/07/14 15:03:39;;;;;;;6.25;0.85;;;;;;;;;;5084950;28;20133;-64
2022/07/14 15:06:04;;;;;;;6.38;0.70;;;;;;;;;;5074396;28;20466;-65